Time;durP1;ratioP1;P1;durP2;ratioP2;P2;SDS_P1;SDS_P2;PMS_P1;PMS_P2;Temp;Humidity;BMP_temperature;BMP_pressure;BME280_temperature;BME280_humidity;BME280_pressure;Samples;Min_cycle;Max_cycle;Signal;HPM_P1;HPM_P2
2021/07/02 00:00:17;;;;;;;12.20;8.13;;;;;;;15.32;100.00;100522.25;3583747;39;20056;-54
2021/07/02 00:02:44;;;;;;;13.40;8.10;;;;;;;15.51;100.00;100527.47;3583844;39;20088;-52
2021/07/02 00:05:12;;;;;;;11.77;7.70;;;;;;;15.52;100.00;100520.59;3583872;39;20088;-50
2021/07/02 00:07:40;;;;;;;9.73;7.57;;;;;;;15.45;100.00;100526.59;3583637;39;20073;-47
2021/07/02 00:10:08;;;;;;;10.38;7.55;;;;;;;15.52;100.00;100521.44;3583759;39;20100;-52
2021/07/02 00:12:35;;;;;;;9.85;7.18;;;;;;;15.59;100.00;100513.72;3583810;39;20065;-49
2021/07/02 00:15:04;;;;;;;9.43;7.57;;;;;;;15.55;100.00;100515.44;3583337;39;20057;-48
2021/07/02 00:17:31;;;;;;;10.18;6.93;;;;;;;15.42;100.00;100514.53;3583400;39;20080;-48
2021/07/02 00:19:58;;;;;;;10.32;7.03;;;;;;;15.59;100.00;100524.91;3583555;39;20049;-57
2021/07/02 00:22:25;;;;;;;9.90;7.25;;;;;;;15.52;100.00;100516.28;3583829;39;20420;-54
2021/07/02 00:24:52;;;;;;;11.10;7.45;;;;;;;15.34;100.00;100521.38;3583783;39;20088;-48
2021/07/02 00:27:19;;;;;;;10.40;7.82;;;;;;;15.61;100.00;100517.16;3583660;39;20066;-47
2021/07/02 00:29:46;;;;;;;11.10;7.15;;;;;;;15.54;100.00;100524.03;3583618;39;20180;-54
2021/07/02 00:32:13;;;;;;;11.35;8.38;;;;;;;15.51;100.00;100521.44;3583651;39;20080;-54
2021/07/02 00:34:40;;;;;;;13.93;8.63;;;;;;;15.41;100.00;100523.13;3583605;39;20084;-54
2021/07/02 00:37:07;;;;;;;13.93;9.25;;;;;;;15.48;100.00;100522.31;3583372;39;20064;-55
2021/07/02 00:39:35;;;;;;;15.30;10.23;;;;;;;15.73;100.00;100527.56;3583374;39;20059;-51
2021/07/02 00:42:02;;;;;;;14.40;9.75;;;;;;;15.64;100.00;100523.25;3583298;39;20453;-52
2021/07/02 00:44:46;;;;;;;17.02;10.35;;;;;;;15.57;100.00;100521.44;3584029;39;20096;-47
2021/07/02 00:47:15;;;;;;;17.13;11.27;;;;;;;15.54;100.00;100524.03;3585367;39;20088;-54
2021/07/02 00:49:43;;;;;;;16.95;10.85;;;;;;;15.48;100.00;100524.91;3585078;39;20088;-48
2021/07/02 00:52:12;;;;;;;21.30;11.35;;;;;;;15.52;100.00;100524.03;3585094;39;20116;-52
2021/07/02 00:54:40;;;;;;;25.35;12.45;;;;;;;15.39;100.00;100524.88;3584855;39;20056;-47
2021/07/02 00:57:09;;;;;;;24.17;13.10;;;;;;;15.40;100.00;100525.72;3584835;39;20085;-52
2021/07/02 00:59:40;;;;;;;29.80;13.38;;;;;;;15.57;100.00;100513.72;3584837;39;20101;-51
2021/07/02 01:02:08;;;;;;;34.35;14.38;;;;;;;15.47;100.00;100528.31;3585314;39;20094;-49
2021/07/02 01:04:36;;;;;;;26.95;14.73;;;;;;;15.49;100.00;100523.19;3584745;39;20064;-49
2021/07/02 01:07:03;;;;;;;26.38;14.27;;;;;;;15.60;100.00;100523.19;3584852;39;20092;-52
2021/07/02 01:09:30;;;;;;;31.10;15.25;;;;;;;15.32;100.00;100517.94;3584693;39;20115;-50
2021/07/02 01:11:59;;;;;;;24.83;14.77;;;;;;;15.44;100.00;100518.00;3584820;39;20081;-48
2021/07/02 01:14:26;;;;;;;30.58;15.40;;;;;;;15.29;100.00;100511.03;3584895;39;20092;-51
2021/07/02 01:16:56;;;;;;;33.22;15.93;;;;;;;15.64;100.00;100514.63;3584870;39;20171;-51
2021/07/02 01:19:24;;;;;;;38.05;17.23;;;;;;;15.36;100.00;100511.94;3584787;39;20591;-47
2021/07/02 01:21:54;;;;;;;29.85;15.88;;;;;;;15.57;100.00;100510.28;3584745;39;20080;-51
2021/07/02 01:24:24;;;;;;;28.77;16.52;;;;;;;15.46;100.00;100508.53;3584715;39;20067;-52
2021/07/02 01:26:51;;;;;;;32.05;16.88;;;;;;;15.55;100.00;100505.13;3584948;39;20151;-51
2021/07/02 01:29:20;;;;;;;38.40;17.20;;;;;;;15.63;100.00;100510.31;3584854;39;20097;-52
2021/07/02 01:31:47;;;;;;;41.80;18.55;;;;;;;15.45;100.00;100501.66;3584843;39;20498;-54
2021/07/02 01:34:14;;;;;;;37.08;18.70;;;;;;;15.67;100.00;100501.75;3584907;39;20052;-49
2021/07/02 01:36:41;;;;;;;37.53;19.48;;;;;;;15.59;100.00;100503.41;3584695;39;20092;-52
2021/07/02 01:39:08;;;;;;;43.90;17.92;;;;;;;15.60;100.00;100503.41;3584619;39;20056;-48
2021/07/02 01:41:35;;;;;;;37.95;18.70;;;;;;;15.49;100.00;100508.53;3585098;39;20067;-52
2021/07/02 01:44:02;;;;;;;61.65;21.52;;;;;;;15.47;100.00;100502.50;3585019;39;20068;-49
2021/07/02 01:46:29;;;;;;;35.30;19.35;;;;;;;15.46;100.00;100510.25;3584706;39;20097;-52
2021/07/02 01:48:56;;;;;;;42.53;21.17;;;;;;;15.70;100.00;100509.47;3584504;39;20076;-51
2021/07/02 01:51:23;;;;;;;41.38;20.38;;;;;;;15.66;100.00;100507.75;3584523;39;20333;-55
2021/07/02 01:53:50;;;;;;;55.10;20.85;;;;;;;15.67;100.00;100507.75;3584626;39;20124;-53
2021/07/02 01:56:18;;;;;;;48.17;20.85;;;;;;;15.71;100.00;100506.03;3584242;39;20660;-53
2021/07/02 01:58:45;;;;;;;39.03;20.02;;;;;;;15.73;100.00;100502.59;3584442;39;20369;-48
2021/07/02 02:01:12;;;;;;;41.33;20.92;;;;;;;15.70;100.00;100497.44;3584259;39;20103;-53
2021/07/02 02:03:39;;;;;;;44.55;21.65;;;;;;;15.76;100.00;100504.31;3584484;39;20049;-48
2021/07/02 02:06:06;;;;;;;54.65;21.77;;;;;;;15.76;100.00;100500.03;3584561;39;20052;-49
2021/07/02 02:08:33;;;;;;;50.25;22.23;;;;;;;15.81;100.00;100507.78;3584338;39;20095;-50
2021/07/02 02:11:00;;;;;;;49.40;20.67;;;;;;;15.75;100.00;100512.91;3584800;39;20092;-47
2021/07/02 02:13:27;;;;;;;56.35;22.77;;;;;;;15.55;100.00;100507.69;3584414;39;20048;-48
2021/07/02 02:15:54;;;;;;;55.08;23.05;;;;;;;15.79;100.00;100514.66;3584351;39;20127;-49
2021/07/02 02:18:21;;;;;;;47.17;22.30;;;;;;;15.73;100.00;100512.94;3584688;39;20081;-52
2021/07/02 02:20:48;;;;;;;64.43;24.83;;;;;;;15.65;100.00;100511.19;3584789;39;20104;-57
2021/07/02 02:23:15;;;;;;;61.15;24.40;;;;;;;15.83;100.00;100510.38;3584453;39;20150;-52
2021/07/02 02:25:42;;;;;;;50.65;23.67;;;;;;;15.85;100.00;100513.78;3584455;39;20060;-49
2021/07/02 02:28:09;;;;;;;49.88;23.27;;;;;;;15.67;100.00;100507.75;3584505;39;20055;-53
2021/07/02 02:30:37;;;;;;;56.22;23.85;;;;;;;15.49;100.00;100518.00;3584480;39;20044;-53
2021/07/02 02:33:05;;;;;;;50.33;24.48;;;;;;;15.86;100.00;100515.53;3584664;39;20299;-47
2021/07/02 02:35:33;;;;;;;74.90;27.33;;;;;;;15.77;100.00;100509.50;3584327;39;20085;-49
2021/07/02 02:38:00;;;;;;;107.72;28.70;;;;;;;15.70;100.00;100517.22;3584209;39;20092;-48
2021/07/02 02:40:27;;;;;;;59.33;25.55;;;;;;;15.70;100.00;100519.81;3584381;39;20101;-52
2021/07/02 02:42:54;;;;;;;58.08;26.10;;;;;;;15.99;100.00;100517.25;3584370;39;20084;-47
2021/07/02 02:45:21;;;;;;;66.82;25.30;;;;;;;15.82;100.00;100526.72;3584143;39;20081;-50
2021/07/02 02:47:49;;;;;;;51.08;24.17;;;;;;;15.89;100.00;100520.69;3584712;39;20359;-54
2021/07/02 02:50:16;;;;;;;53.65;26.15;;;;;;;16.09;100.00;100523.31;3584484;39;20048;-50
2021/07/02 02:52:43;;;;;;;60.63;24.55;;;;;;;15.87;100.00;100522.41;3584365;39;20192;-47
2021/07/02 02:55:10;;;;;;;52.85;26.15;;;;;;;15.67;100.00;100522.41;3584242;39;20433;-50
2021/07/02 02:57:37;;;;;;;53.17;25.10;;;;;;;15.89;100.00;100526.72;3584205;39;20052;-49
2021/07/02 03:00:07;;;;;;;53.90;26.13;;;;;;;16.10;100.00;100528.47;3584007;39;20056;-50
2021/07/02 03:02:34;;;;;;;91.30;28.30;;;;;;;16.04;100.00;100520.72;3584365;39;20136;-56
2021/07/02 03:05:13;;;;;;;52.97;26.88;;;;;;;16.20;100.00;100530.19;3583907;39;20056;-53
2021/07/02 03:07:42;;;;;;;54.08;25.73;;;;;;;16.19;100.00;100528.47;3583945;39;20061;-53
2021/07/02 03:10:26;;;;;;;56.63;25.83;;;;;;;16.24;100.00;100521.56;3583983;39;20044;-52
2021/07/02 03:12:53;;;;;;;53.35;27.50;;;;;;;15.98;100.00;100520.69;3584403;39;20661;-47
2021/07/02 03:15:20;;;;;;;62.03;27.80;;;;;;;16.02;100.00;100530.19;3584739;39;20086;-51
2021/07/02 03:17:47;;;;;;;49.63;26.60;;;;;;;16.25;100.00;100532.78;3584475;39;20052;-53
2021/07/02 03:20:14;;;;;;;55.30;26.98;;;;;;;16.26;100.00;100526.72;3583864;39;20060;-50
2021/07/02 03:22:41;;;;;;;74.68;29.92;;;;;;;16.00;100.00;100525.03;3584319;39;20076;-47
2021/07/02 03:25:10;;;;;;;70.63;29.05;;;;;;;16.14;100.00;100527.59;3584107;39;20088;-55
2021/07/02 03:27:38;;;;;;;51.55;27.17;;;;;;;16.11;100.00;100532.75;3583881;39;20096;-55
2021/07/02 03:30:08;;;;;;;57.65;28.25;;;;;;;16.07;100.00;100532.75;3584295;39;20317;-47
2021/07/02 03:32:35;;;;;;;57.35;27.52;;;;;;;16.40;100.00;100531.91;3583980;39;20583;-53
2021/07/02 03:35:04;;;;;;;57.47;28.30;;;;;;;16.38;100.00;100534.50;3583739;39;20064;-54
2021/07/02 03:37:31;;;;;;;64.60;29.17;;;;;;;16.30;100.00;100533.63;3583715;39;20415;-50
2021/07/02 03:39:58;;;;;;;52.45;27.58;;;;;;;16.37;100.00;100537.09;3583792;39;20095;-52
2021/07/02 03:42:25;;;;;;;54.70;28.13;;;;;;;16.41;100.00;100544.84;3584037;39;20082;-55
2021/07/02 03:44:52;;;;;;;54.63;27.92;;;;;;;16.23;100.00;100539.66;3583627;39;20081;-55
2021/07/02 03:47:19;;;;;;;50.47;26.88;;;;;;;16.50;100.00;100541.34;3583866;39;20060;-58
2021/07/02 03:49:46;;;;;;;60.20;28.08;;;;;;;16.29;100.00;100540.53;3583927;39;20256;-51
2021/07/02 03:52:13;;;;;;;51.97;26.05;;;;;;;16.43;100.00;100535.34;3584008;39;20057;-58
2021/07/02 03:54:40;;;;;;;48.10;26.67;;;;;;;16.60;100.00;100545.69;3584000;39;20518;-49
2021/07/02 03:57:11;;;;;;;45.00;25.38;;;;;;;16.67;100.00;100543.94;3583880;39;20062;-50
2021/07/02 03:59:49;;;;;;;50.92;26.92;;;;;;;16.46;100.00;100553.44;3583860;39;20099;-51
2021/07/02 04:02:18;;;;;;;44.60;26.75;;;;;;;16.55;100.00;100557.75;3583762;39;20085;-53
2021/07/02 04:04:45;;;;;;;40.75;24.90;;;;;;;16.67;100.00;100551.69;3582532;39;20453;-51
2021/07/02 04:07:13;;;;;;;49.25;25.23;;;;;;;16.87;100.00;100549.97;3583770;39;20424;-50
2021/07/02 04:09:40;;;;;;;39.38;23.58;;;;;;;16.73;100.00;100555.19;3583344;39;20048;-54
2021/07/02 04:12:09;;;;;;;39.15;23.92;;;;;;;17.03;100.00;100563.72;3583651;39;20112;-50
2021/07/02 04:14:36;;;;;;;37.35;23.92;;;;;;;17.04;100.00;100562.84;3583743;39;20063;-48
2021/07/02 04:17:03;;;;;;;30.98;21.23;;;;;;;17.28;100.00;100562.75;3583606;39;20085;-51
2021/07/02 04:19:30;;;;;;;34.72;21.50;;;;;;;17.21;100.00;100563.66;3584037;39;20055;-55
2021/07/02 04:21:58;;;;;;;32.88;20.92;;;;;;;17.09;100.00;100566.28;3584976;39;20111;-55
2021/07/02 04:24:27;;;;;;;35.72;21.00;;;;;;;17.16;100.00;100560.22;3584949;39;20052;-56
2021/07/02 04:27:13;;;;;;;30.30;20.13;;;;;;;17.22;100.00;100565.38;3584969;39;20064;-51
2021/07/02 04:29:41;;;;;;;29.15;19.58;;;;;;;17.30;100.00;100563.63;3585114;39;20096;-51
2021/07/02 04:32:08;;;;;;;28.42;18.60;;;;;;;17.38;100.00;100567.88;3585415;39;20095;-48
2021/07/02 04:34:35;;;;;;;28.67;19.75;;;;;;;17.29;100.00;100558.47;3585440;39;20060;-50
2021/07/02 04:37:03;;;;;;;28.23;19.08;;;;;;;17.31;100.00;100559.31;3584981;39;20461;-55
2021/07/02 04:39:34;;;;;;;29.65;18.77;;;;;;;17.21;100.00;100557.63;3584988;39;20067;-53
2021/07/02 04:42:02;;;;;;;30.67;18.95;;;;;;;17.21;100.00;100567.97;3585049;39;20104;-56
2021/07/02 04:44:29;;;;;;;24.50;18.55;;;;;;;17.28;100.00;100569.66;3585152;39;20069;-54
2021/07/02 04:46:56;;;;;;;25.15;18.05;;;;;;;17.50;100.00;100575.63;3584931;39;20442;-53
2021/07/02 04:49:23;;;;;;;29.17;19.45;;;;;;;17.63;100.00;100571.25;3584902;39;20060;-49
2021/07/02 04:51:50;;;;;;;23.98;17.90;;;;;;;17.68;100.00;100582.44;3585307;39;20096;-49
2021/07/02 04:54:17;;;;;;;25.83;18.90;;;;;;;17.65;100.00;100585.03;3585099;39;20088;-50
2021/07/02 04:56:47;;;;;;;26.00;17.65;;;;;;;17.82;100.00;100593.63;3584901;39;20459;-48
2021/07/02 04:59:15;;;;;;;28.15;18.50;;;;;;;17.39;100.00;100593.78;3584561;39;20052;-55
2021/07/02 05:01:43;;;;;;;24.83;16.58;;;;;;;17.79;100.00;100594.50;3585083;39;20068;-50
2021/07/02 05:04:10;;;;;;;26.27;17.23;;;;;;;17.66;100.00;100597.13;3584843;39;20096;-53
2021/07/02 05:06:38;;;;;;;21.02;15.05;;;;;;;17.72;100.00;100597.97;3584989;39;20091;-52
2021/07/02 05:09:06;;;;;;;24.52;15.25;;;;;;;17.76;100.00;100599.69;3584553;39;20355;-49
2021/07/02 05:11:36;;;;;;;22.05;15.32;;;;;;;17.53;100.00;100598.91;3584711;39;20097;-55
2021/07/02 05:14:04;;;;;;;21.20;14.65;;;;;;;17.80;100.00;100600.56;3584886;39;20044;-48
2021/07/02 05:16:31;;;;;;;19.25;14.30;;;;;;;17.93;100.00;100611.69;3584639;39;20439;-53
2021/07/02 05:18:58;;;;;;;18.63;14.32;;;;;;;17.81;100.00;100607.44;3584504;39;20094;-48
2021/07/02 05:21:26;;;;;;;22.98;15.82;;;;;;;17.77;100.00;100605.72;3584631;39;20438;-52
2021/07/02 05:23:53;;;;;;;23.05;14.85;;;;;;;17.77;100.00;100603.16;3584554;39;20439;-50
2021/07/02 05:26:20;;;;;;;29.48;16.65;;;;;;;17.62;100.00;100606.66;3584746;39;20450;-48
2021/07/02 05:28:47;;;;;;;29.98;18.23;;;;;;;17.80;100.00;100609.19;3584860;39;20480;-49
2021/07/02 05:31:17;;;;;;;30.88;17.58;;;;;;;18.05;100.00;100621.97;3584488;39;20115;-47
2021/07/02 05:33:44;;;;;;;29.65;16.02;;;;;;;17.92;100.00;100620.31;3584317;39;20048;-48
2021/07/02 05:36:11;;;;;;;31.27;16.05;;;;;;;18.04;100.00;100622.84;3584461;39;20347;-52
2021/07/02 05:38:38;;;;;;;28.67;16.38;;;;;;;17.99;100.00;100620.28;3584244;39;20048;-52
2021/07/02 05:41:05;;;;;;;23.95;15.20;;;;;;;18.25;100.00;100616.66;3584536;39;20105;-53
2021/07/02 05:43:33;;;;;;;17.92;14.45;;;;;;;18.11;100.00;100627.13;3584577;39;20116;-48
2021/07/02 05:46:00;;;;;;;20.83;14.68;;;;;;;17.80;100.00;100627.31;3584403;39;20082;-49
2021/07/02 05:48:28;;;;;;;18.05;14.80;;;;;;;17.85;100.00;100623.84;3584328;39;20420;-47
2021/07/02 05:50:55;;;;;;;18.48;14.70;;;;;;;17.92;100.00;100634.13;3584696;39;20060;-52
2021/07/02 05:53:22;;;;;;;18.13;14.65;;;;;;;18.03;100.00;100637.56;3584672;39;20802;-51
2021/07/02 05:55:50;;;;;;;23.20;15.43;;;;;;;17.79;100.00;100633.38;3584580;39;20067;-53
2021/07/02 05:58:17;;;;;;;21.27;15.32;;;;;;;17.85;100.00;100635.06;3584488;39;20092;-55
2021/07/02 06:00:44;;;;;;;21.60;15.13;;;;;;;17.98;100.00;100630.66;3584161;39;20144;-52
2021/07/02 06:03:11;;;;;;;21.60;15.45;;;;;;;18.13;100.00;100627.13;3584038;39;20065;-50
2021/07/02 06:05:38;;;;;;;16.67;14.18;;;;;;;17.95;100.00;100630.69;3584025;39;20049;-57
2021/07/02 06:08:05;;;;;;;21.73;15.93;;;;;;;18.13;100.00;100625.41;3584279;39;20089;-55
2021/07/02 06:10:32;;;;;;;21.30;15.73;;;;;;;17.93;100.00;100619.44;3583960;39;20107;-50
2021/07/02 06:13:00;;;;;;;18.95;14.73;;;;;;;17.92;100.00;100620.31;3582933;39;20418;-56
2021/07/02 06:15:28;;;;;;;21.80;14.50;;;;;;;18.45;100.00;100625.16;3584234;39;20060;-47
2021/07/02 06:17:55;;;;;;;22.65;15.13;;;;;;;18.42;100.00;100638.16;3583922;39;20092;-49
2021/07/02 06:20:23;;;;;;;17.83;14.35;;;;;;;18.67;100.00;100633.63;3584497;39;20096;-47
2021/07/02 06:22:50;;;;;;;19.25;14.15;;;;;;;18.86;100.00;100631.78;3584008;39;20088;-54
2021/07/02 06:25:18;;;;;;;17.48;13.68;;;;;;;19.15;100.00;100623.69;3583919;39;20064;-47
2021/07/02 06:27:45;;;;;;;19.40;13.77;;;;;;;19.26;100.00;100633.94;3583922;39;20048;-51
2021/07/02 06:30:16;;;;;;;16.48;12.70;;;;;;;19.33;100.00;100633.03;3584064;39;20107;-53
2021/07/02 06:32:45;;;;;;;16.63;12.68;;;;;;;19.00;100.00;100637.69;3583689;39;20449;-47
2021/07/02 06:35:12;;;;;;;15.77;12.77;;;;;;;19.12;100.00;100638.44;3584207;39;20489;-47
2021/07/02 06:37:39;;;;;;;18.65;12.15;;;;;;;19.71;100.00;100639.53;3583811;39;20104;-52
2021/07/02 06:40:08;;;;;;;17.00;12.38;;;;;;;19.55;100.00;100651.78;3583808;39;20052;-54
2021/07/02 06:42:35;;;;;;;15.13;10.82;;;;;;;19.58;100.00;100647.44;3583434;39;20060;-49
2021/07/02 06:45:03;;;;;;;16.52;12.00;;;;;;;19.16;100.00;100648.78;3583872;39;20070;-51
2021/07/02 06:47:30;;;;;;;15.20;11.55;;;;;;;19.48;100.00;100651.00;3584049;39;20052;-52
2021/07/02 06:49:57;;;;;;;13.57;10.38;;;;;;;19.50;100.00;100648.38;3583943;39;20068;-52
2021/07/02 06:52:24;;;;;;;16.05;11.35;;;;;;;19.31;100.00;100658.97;3584123;39;20071;-53
2021/07/02 06:54:52;;;;;;;17.65;11.10;;;;;;;19.40;100.00;100655.44;3583937;39;20084;-57
2021/07/02 06:57:19;;;;;;;15.77;11.13;;;;;;;19.54;100.00;100657.88;3583724;39;20100;-50
2021/07/02 06:59:46;;;;;;;17.80;11.02;;;;;;;19.26;100.00;100655.56;3583572;39;20270;-50
2021/07/02 07:02:13;;;;;;;17.42;11.88;;;;;;;19.23;100.00;100668.63;3583478;39;22778;-48
2021/07/02 07:04:40;;;;;;;16.08;11.73;;;;;;;19.45;100.00;100674.41;3583827;39;20108;-52
2021/07/02 07:07:09;;;;;;;14.65;10.65;;;;;;;19.75;100.00;100669.78;3582696;39;20064;-47
2021/07/02 07:09:37;;;;;;;17.10;11.38;;;;;;;19.64;100.00;100669.03;3583826;39;20386;-49
2021/07/02 07:12:05;;;;;;;15.10;10.98;;;;;;;19.33;100.00;100666.78;3583777;39;20330;-55
2021/07/02 07:14:32;;;;;;;16.10;11.57;;;;;;;19.52;100.00;100673.47;3583814;39;20127;-56
2021/07/02 07:17:01;;;;;;;16.05;11.57;;;;;;;19.58;99.71;100676.00;3583923;39;20071;-54
2021/07/02 07:19:29;;;;;;;16.38;11.73;;;;;;;19.65;100.00;100678.59;3583685;39;20412;-53
2021/07/02 07:21:57;;;;;;;13.32;11.50;;;;;;;19.38;100.00;100672.78;3583750;39;20059;-54
2021/07/02 07:24:24;;;;;;;15.73;11.80;;;;;;;20.02;97.49;100679.84;3583630;39;20084;-52
2021/07/02 07:26:56;;;;;;;15.88;11.60;;;;;;;20.28;97.17;100684.66;3583699;39;20071;-54
2021/07/02 07:29:25;;;;;;;16.75;11.30;;;;;;;20.00;98.02;100688.53;3583402;39;20052;-50
2021/07/02 07:31:53;;;;;;;15.32;11.10;;;;;;;20.02;97.34;100686.78;3583752;39;20057;-54
2021/07/02 07:34:34;;;;;;;16.27;11.98;;;;;;;20.17;98.14;100688.31;3583716;39;20056;-54
2021/07/02 07:37:06;;;;;;;15.82;11.15;;;;;;;21.01;93.14;100695.69;3583408;39;20080;-53
2021/07/02 07:39:33;;;;;;;15.85;11.23;;;;;;;21.47;91.36;100694.03;3583618;39;20088;-53
2021/07/02 07:42:01;;;;;;;14.18;10.52;;;;;;;22.37;84.06;100694.78;3583399;39;20056;-53
2021/07/02 07:44:28;;;;;;;12.13;10.20;;;;;;;22.32;83.32;100697.50;3583501;39;20082;-54
2021/07/02 07:46:55;;;;;;;15.15;10.20;;;;;;;22.70;82.61;100703.56;3583248;39;20096;-55
2021/07/02 07:49:23;;;;;;;15.48;10.35;;;;;;;22.35;83.37;100701.75;3582938;39;20041;-50
2021/07/02 07:51:57;;;;;;;13.07;9.10;;;;;;;23.14;82.71;100706.81;3583611;39;20048;-56
2021/07/02 07:54:24;;;;;;;11.38;9.40;;;;;;;22.33;78.71;100695.75;3584367;39;20434;-53
2021/07/02 07:56:51;;;;;;;11.77;9.57;;;;;;;22.42;81.25;100694.63;3585201;39;20421;-54
2021/07/02 07:59:23;;;;;;;12.57;9.57;;;;;;;22.62;82.02;100701.13;3584741;39;20057;-54
2021/07/02 08:01:50;;;;;;;12.73;9.68;;;;;;;22.21;81.69;100696.84;3585174;39;20080;-51
2021/07/02 08:04:17;;;;;;;11.80;9.60;;;;;;;21.82;82.77;100701.16;3585003;39;20048;-52
2021/07/02 08:06:45;;;;;;;10.52;9.35;;;;;;;21.81;83.53;100704.63;3585265;39;20116;-54
2021/07/02 08:09:14;;;;;;;12.00;10.27;;;;;;;21.50;84.40;100700.03;3584863;39;20052;-50
2021/07/02 08:11:41;;;;;;;17.73;10.50;;;;;;;21.37;84.33;100698.56;3584929;39;20072;-53
2021/07/02 08:14:10;;;;;;;15.30;10.75;;;;;;;21.32;88.47;100695.19;3585274;39;20155;-53
2021/07/02 08:16:38;;;;;;;13.45;10.00;;;;;;;22.02;82.86;100698.97;3584813;39;20088;-52
2021/07/02 08:19:06;;;;;;;14.73;9.57;;;;;;;22.03;83.90;100698.06;3584765;39;20415;-50
2021/07/02 08:21:33;;;;;;;16.35;9.25;;;;;;;21.81;83.13;100697.66;3583802;39;20084;-54
2021/07/02 08:24:01;;;;;;;13.70;8.95;;;;;;;21.76;84.76;100696.03;3584779;39;20060;-51
2021/07/02 08:26:28;;;;;;;12.35;9.20;;;;;;;22.30;81.34;100690.56;3584556;39;20127;-49
2021/07/02 08:31:40;;;;;;;12.30;9.20;;;;;;;22.07;82.62;100694.53;3584951;39;20084;-53
2021/07/02 08:34:07;;;;;;;10.73;8.27;;;;;;;22.16;81.50;100697.84;3584925;39;20360;-56
2021/07/02 08:36:34;;;;;;;14.48;9.18;;;;;;;22.19;81.36;100700.41;3584811;39;20135;-55
2021/07/02 08:39:02;;;;;;;11.68;8.35;;;;;;;22.56;80.79;100698.66;3584388;39;20538;-50
2021/07/02 08:41:30;;;;;;;11.23;8.13;;;;;;;22.76;78.06;100705.16;3584498;39;20080;-48
2021/07/02 08:43:57;;;;;;;11.98;7.28;;;;;;;22.49;78.72;100689.25;3584571;39;20068;-52
2021/07/02 08:46:25;;;;;;;10.65;7.22;;;;;;;22.74;75.30;100699.09;3584629;39;20055;-54
2021/07/02 08:48:52;;;;;;;12.13;8.07;;;;;;;22.28;80.09;100698.44;3584717;39;20053;-51
2021/07/02 08:51:19;;;;;;;11.88;7.43;;;;;;;22.33;80.00;100704.41;3584932;39;20052;-54
2021/07/02 08:53:47;;;;;;;8.90;6.63;;;;;;;22.12;81.26;100707.50;3584825;39;20092;-54
2021/07/02 08:56:14;;;;;;;8.57;5.95;;;;;;;22.45;75.86;100707.63;3584561;39;20061;-52
2021/07/02 08:58:43;;;;;;;10.25;7.38;;;;;;;22.51;75.88;100699.66;3584212;39;20076;-51
2021/07/02 09:01:34;;;;;;;12.00;8.27;;;;;;;22.76;76.92;100703.41;3584641;39;20056;-51
2021/07/02 09:04:29;;;;;;;13.35;7.95;;;;;;;23.46;78.85;100712.97;3584285;39;20044;-52
2021/07/02 09:07:13;;;;;;;9.20;7.55;;;;;;;23.57;72.06;100703.94;3584138;39;20572;-54
2021/07/02 09:09:51;;;;;;;13.68;8.43;;;;;;;23.02;72.54;100713.25;3584367;39;20048;-55
2021/07/02 09:12:21;;;;;;;8.13;6.68;;;;;;;23.41;71.13;100705.25;3584232;39;20068;-51
2021/07/02 09:15:07;;;;;;;10.48;7.32;;;;;;;22.85;74.08;100708.41;3584191;39;20064;-54
2021/07/02 09:17:50;;;;;;;10.95;7.78;;;;;;;23.03;74.57;100711.47;3584093;39;20052;-53
2021/07/02 09:20:39;;;;;;;12.70;7.53;;;;;;;24.12;70.59;100702.34;3584406;39;20088;-57
2021/07/02 09:23:11;;;;;;;11.93;9.05;;;;;;;24.41;72.36;100710.25;3584279;39;20056;-53
2021/07/02 09:25:47;;;;;;;8.27;6.90;;;;;;;24.44;69.05;100702.28;3584341;39;20045;-54
2021/07/02 09:28:17;;;;;;;8.32;6.30;;;;;;;24.55;65.67;100695.81;3584138;39;20104;-55
2021/07/02 09:30:49;;;;;;;8.77;5.28;;;;;;;24.93;63.67;100704.19;3584385;39;21166;-56
2021/07/02 09:33:25;;;;;;;8.10;5.40;;;;;;;24.24;62.75;100695.03;3584722;39;20056;-53
2021/07/02 09:35:55;;;;;;;8.05;5.57;;;;;;;24.06;63.72;100697.31;3584458;39;20073;-58
2021/07/02 09:38:40;;;;;;;8.63;5.40;;;;;;;24.71;64.63;100697.94;3583876;39;20116;-53
2021/07/02 09:41:09;;;;;;;9.40;5.85;;;;;;;25.57;56.57;100695.88;3584113;39;20430;-57
2021/07/02 09:43:38;;;;;;;7.93;6.20;;;;;;;24.85;59.33;100699.19;3584381;39;20060;-53
2021/07/02 09:46:08;;;;;;;7.50;5.72;;;;;;;25.73;60.09;100693.53;3584277;39;20044;-55
2021/07/02 09:48:44;;;;;;;14.23;6.97;;;;;;;25.46;60.50;100704.09;3582695;39;20065;-55
2021/07/02 09:51:13;;;;;;;7.13;6.15;;;;;;;25.57;57.09;100696.72;3584386;39;20112;-54
2021/07/02 09:53:40;;;;;;;10.43;7.07;;;;;;;25.20;59.79;100698.94;3584005;39;20088;-53
2021/07/02 09:56:18;;;;;;;10.55;6.85;;;;;;;24.05;64.43;100695.59;3584377;39;20052;-54
2021/07/02 09:58:46;;;;;;;8.95;7.00;;;;;;;25.46;60.97;100698.00;3583866;39;20075;-51
2021/07/02 10:01:25;;;;;;;8.50;6.38;;;;;;;25.72;59.15;100702.31;3583992;39;20077;-52
2021/07/02 10:03:52;;;;;;;6.45;5.82;;;;;;;24.98;56.97;100701.41;3584425;39;20072;-53
2021/07/02 10:06:21;;;;;;;10.75;6.03;;;;;;;24.85;56.99;100707.03;3584006;39;20077;-50
2021/07/02 10:08:49;;;;;;;7.13;5.65;;;;;;;25.54;58.88;100709.94;3583812;39;20048;-51
2021/07/02 10:11:18;;;;;;;6.13;5.43;;;;;;;27.08;52.85;100710.06;3584087;39;20048;-52
2021/07/02 10:13:49;;;;;;;10.73;6.18;;;;;;;27.49;49.57;100707.47;3584145;39;20269;-49
2021/07/02 10:16:17;;;;;;;5.90;5.30;;;;;;;26.27;54.35;100705.50;3583817;39;20056;-52
2021/07/02 10:18:49;;;;;;;8.30;6.07;;;;;;;25.54;54.77;100707.31;3583412;39;20055;-52
2021/07/02 10:21:20;;;;;;;10.68;6.32;;;;;;;26.87;52.83;100715.34;3584424;39;20112;-50
2021/07/02 10:23:48;;;;;;;9.55;6.53;;;;;;;26.64;52.68;100710.16;3583947;39;20063;-50
2021/07/02 10:26:19;;;;;;;8.10;7.10;;;;;;;27.06;49.01;100717.19;3583937;39;20104;-49
2021/07/02 10:28:46;;;;;;;9.73;7.07;;;;;;;25.63;53.08;100706.13;3583991;39;20064;-52
2021/07/02 10:31:16;;;;;;;8.50;6.60;;;;;;;25.81;55.40;100704.63;3583723;39;20114;-50
2021/07/02 10:33:49;;;;;;;10.90;7.03;;;;;;;27.91;51.27;100712.59;3583983;39;20179;-52
2021/07/02 10:36:17;;;;;;;9.30;6.00;;;;;;;31.09;39.41;100719.66;3583843;39;20319;-49
2021/07/02 10:38:46;;;;;;;11.02;5.90;;;;;;;32.18;37.73;100715.66;3583431;39;20118;-45
2021/07/02 10:41:18;;;;;;;6.97;5.03;;;;;;;30.78;39.96;100719.75;3583786;39;20100;-49
2021/07/02 10:44:04;;;;;;;6.63;5.35;;;;;;;29.51;41.78;100709.13;3583723;39;20084;-52
2021/07/02 10:46:36;;;;;;;7.40;5.47;;;;;;;27.61;45.07;100704.28;3583778;39;20425;-53
2021/07/02 10:49:09;;;;;;;7.18;5.60;;;;;;;27.19;47.87;100707.03;3583698;39;20048;-52
2021/07/02 10:51:39;;;;;;;7.22;6.05;;;;;;;26.36;51.44;100710.41;3583899;39;20257;-54
2021/07/02 10:54:09;;;;;;;9.27;5.90;;;;;;;27.38;47.96;100713.22;3583892;39;20087;-48
2021/07/02 10:56:43;;;;;;;8.80;6.15;;;;;;;29.96;42.56;100712.03;3583688;39;20085;-48
2021/07/02 10:59:14;;;;;;;9.90;6.20;;;;;;;28.50;45.62;100703.66;3583674;39;20161;-46
2021/07/02 11:02:07;;;;;;;6.47;5.80;;;;;;;27.38;48.07;100708.78;3584142;39;20508;-51
2021/07/02 11:04:39;;;;;;;7.78;6.38;;;;;;;26.65;49.37;100701.38;3583873;39;20339;-49
2021/07/02 11:07:12;;;;;;;8.85;6.45;;;;;;;28.35;45.79;100717.59;3583739;39;20342;-50
2021/07/02 11:09:50;;;;;;;7.32;5.82;;;;;;;30.67;39.74;100723.00;3583706;39;20435;-49
2021/07/02 11:12:45;;;;;;;6.50;5.20;;;;;;;31.98;38.93;100724.84;3583764;39;20541;-54
2021/07/02 11:15:16;;;;;;;8.18;5.47;;;;;;;32.93;37.57;100729.31;3583649;39;20045;-54
2021/07/02 11:18:07;;;;;;;5.68;5.13;;;;;;;34.33;32.23;100737.19;3583899;39;20322;-52
2021/07/02 11:20:34;;;;;;;5.30;4.47;;;;;;;31.59;33.62;100725.53;3583853;39;20056;-48